sensor_id;sensor_type;location;lat;lon;timestamp;pressure;altitude;pressure_sealevel;temperature;humidity
50430;BME280;36359;41.556;-8.418;2024-02-16T00:02:01;61876.69;;;13.07;100.00
50430;BME280;36359;41.556;-8.418;2024-02-16T00:04:27;61884.16;;;13.14;100.00
50430;BME280;36359;41.556;-8.418;2024-02-16T00:06:53;61880.94;;;13.11;100.00
50430;BME280;36359;41.556;-8.418;2024-02-16T00:09:19;61876.72;;;13.04;100.00
50430;BME280;36359;41.556;-8.418;2024-02-16T00:11:44;61856.88;;;12.90;100.00
50430;BME280;36359;41.556;-8.418;2024-02-16T00:14:10;61860.66;;;12.91;100.00
50430;BME280;36359;41.556;-8.418;2024-02-16T00:16:36;61856.88;;;12.90;100.00
50430;BME280;36359;41.556;-8.418;2024-02-16T00:19:02;61851.59;;;12.83;100.00
50430;BME280;36359;41.556;-8.418;2024-02-16T00:21:28;61823.81;;;12.56;100.00
50430;BME280;36359;41.556;-8.418;2024-02-16T00:23:54;61836.66;;;12.66;100.00
50430;BME280;36359;41.556;-8.418;2024-02-16T00:26:20;61848.97;;;12.75;100.00
50430;BME280;36359;41.556;-8.418;2024-02-16T00:28:46;61874.03;;;13.02;100.00
50430;BME280;36359;41.556;-8.418;2024-02-16T00:31:12;61863.88;;;12.94;100.00
50430;BME280;36359;41.556;-8.418;2024-02-16T00:33:38;61861.72;;;12.92;100.00
50430;BME280;36359;41.556;-8.418;2024-02-16T00:36:04;61860.13;;;12.91;100.00
50430;BME280;36359;41.556;-8.418;2024-02-16T00:38:30;61863.88;;;12.94;100.00
50430;BME280;36359;41.556;-8.418;2024-02-16T00:40:55;61854.25;;;12.85;100.00
50430;BME280;36359;41.556;-8.418;2024-02-16T00:43:21;61848.38;;;12.80;100.00
50430;BME280;36359;41.556;-8.418;2024-02-16T00:45:47;61845.19;;;12.77;100.00
50430;BME280;36359;41.556;-8.418;2024-02-16T00:48:14;61837.69;;;12.69;100.00
50430;BME280;36359;41.556;-8.418;2024-02-16T00:50:40;61837.19;;;12.66;100.00
50430;BME280;36359;41.556;-8.418;2024-02-16T00:53:08;61828.63;;;12.61;100.00
50430;BME280;36359;41.556;-8.418;2024-02-16T00:55:34;61816.84;;;12.52;100.00
50430;BME280;36359;41.556;-8.418;2024-02-16T00:57:59;61817.38;;;12.53;100.00
50430;BME280;36359;41.556;-8.418;2024-02-16T01:00:25;61819.00;;;12.52;100.00
50430;BME280;36359;41.556;-8.418;2024-02-16T01:02:51;61821.16;;;12.54;100.00
50430;BME280;36359;41.556;-8.418;2024-02-16T01:05:20;61824.34;;;12.57;100.00
50430;BME280;36359;41.556;-8.418;2024-02-16T01:07:46;61828.63;;;12.61;100.00
50430;BME280;36359;41.556;-8.418;2024-02-16T01:10:12;61829.13;;;12.64;100.00
50430;BME280;36359;41.556;-8.418;2024-02-16T01:12:40;61826.47;;;12.59;100.00
50430;BME280;36359;41.556;-8.418;2024-02-16T01:15:06;61825.41;;;12.58;100.00
50430;BME280;36359;41.556;-8.418;2024-02-16T01:17:32;61824.34;;;12.57;100.00
50430;BME280;36359;41.556;-8.418;2024-02-16T01:19:58;61827.56;;;12.60;100.00
50430;BME280;36359;41.556;-8.418;2024-02-16T01:22:24;61829.69;;;12.62;100.00
50430;BME280;36359;41.556;-8.418;2024-02-16T01:24:50;61828.63;;;12.58;100.00
50430;BME280;36359;41.556;-8.418;2024-02-16T01:27:16;61828.63;;;12.61;100.00
50430;BME280;36359;41.556;-8.418;2024-02-16T01:29:42;61830.75;;;12.63;100.00
50430;BME280;36359;41.556;-8.418;2024-02-16T01:32:08;61823.28;;;12.56;100.00
50430;BME280;36359;41.556;-8.418;2024-02-16T01:34:34;61814.75;;;12.47;100.00
50430;BME280;36359;41.556;-8.418;2024-02-16T01:36:59;61816.34;;;12.49;100.00
50430;BME280;36359;41.556;-8.418;2024-02-16T01:39:25;61820.06;;;12.53;100.00
50430;BME280;36359;41.556;-8.418;2024-02-16T01:41:51;61814.19;;;12.47;100.00
50430;BME280;36359;41.556;-8.418;2024-02-16T01:44:16;61810.47;;;12.43;100.00
50430;BME280;36359;41.556;-8.418;2024-02-16T01:46:43;61813.16;;;12.43;100.00
50430;BME280;36359;41.556;-8.418;2024-02-16T01:49:10;61814.75;;;12.47;100.00
50430;BME280;36359;41.556;-8.418;2024-02-16T01:51:36;61831.28;;;12.63;100.00
50430;BME280;36359;41.556;-8.418;2024-02-16T01:54:02;61841.97;;;12.73;100.00
50430;BME280;36359;41.556;-8.418;2024-02-16T01:56:28;61833.97;;;12.66;100.00
50430;BME280;36359;41.556;-8.418;2024-02-16T01:58:54;61798.19;;;12.32;100.00
50430;BME280;36359;41.556;-8.418;2024-02-16T02:01:21;61774.72;;;12.07;100.00
50430;BME280;36359;41.556;-8.418;2024-02-16T02:03:47;61762.97;;;11.95;100.00
50430;BME280;36359;41.556;-8.418;2024-02-16T02:06:13;61785.91;;;12.20;100.00
50430;BME280;36359;41.556;-8.418;2024-02-16T02:08:39;61795.50;;;12.29;100.00
50430;BME280;36359;41.556;-8.418;2024-02-16T02:11:05;61780.59;;;12.15;100.00
50430;BME280;36359;41.556;-8.418;2024-02-16T02:13:31;61818.50;;;12.48;100.00
50430;BME280;36359;41.556;-8.418;2024-02-16T02:15:58;61830.19;;;12.65;100.00
50430;BME280;36359;41.556;-8.418;2024-02-16T02:18:25;61845.19;;;12.77;100.00
50430;BME280;36359;41.556;-8.418;2024-02-16T02:20:50;61852.66;;;12.84;100.00
50430;BME280;36359;41.556;-8.418;2024-02-16T02:23:16;61847.84;;;12.79;100.00
50430;BME280;36359;41.556;-8.418;2024-02-16T02:25:42;61845.13;;;12.79;100.00
50430;BME280;36359;41.556;-8.418;2024-02-16T02:28:07;61843.59;;;12.72;100.00
50430;BME280;36359;41.556;-8.418;2024-02-16T02:30:33;61840.88;;;12.75;100.00
50430;BME280;36359;41.556;-8.418;2024-02-16T02:32:59;61836.09;;;12.68;100.00
50430;BME280;36359;41.556;-8.418;2024-02-16T02:35:25;61842.56;;;12.69;100.00
50430;BME280;36359;41.556;-8.418;2024-02-16T02:37:51;61836.63;;;12.68;100.00
50430;BME280;36359;41.556;-8.418;2024-02-16T02:40:16;61843.03;;;12.75;100.00
50430;BME280;36359;41.556;-8.418;2024-02-16T02:42:42;61844.63;;;12.76;100.00
50430;BME280;36359;41.556;-8.418;2024-02-16T02:45:09;61846.78;;;12.78;100.00
50430;BME280;36359;41.556;-8.418;2024-02-16T02:47:35;61852.13;;;12.83;100.00
50430;BME280;36359;41.556;-8.418;2024-02-16T02:50:01;61857.47;;;12.88;100.00
50430;BME280;36359;41.556;-8.418;2024-02-16T02:52:26;61866.00;;;12.96;100.00
50430;BME280;36359;41.556;-8.418;2024-02-16T02:54:52;61863.88;;;12.94;100.00
50430;BME280;36359;41.556;-8.418;2024-02-16T02:57:18;61874.00;;;13.07;100.00
50430;BME280;36359;41.556;-8.418;2024-02-16T02:59:43;61873.47;;;13.04;100.00
50430;BME280;36359;41.556;-8.418;2024-02-16T03:02:10;61871.88;;;13.02;100.00
50430;BME280;36359;41.556;-8.418;2024-02-16T03:04:36;61870.28;;;13.01;100.00
50430;BME280;36359;41.556;-8.418;2024-02-16T03:07:06;61875.06;;;13.05;100.00
50430;BME280;36359;41.556;-8.418;2024-02-16T03:09:32;61866.00;;;12.96;100.00
50430;BME280;36359;41.556;-8.418;2024-02-16T03:11:58;61861.72;;;12.92;100.00
50430;BME280;36359;41.556;-8.418;2024-02-16T03:14:23;61852.66;;;12.84;100.00
50430;BME280;36359;41.556;-8.418;2024-02-16T03:16:49;61851.03;;;12.82;100.00
50430;BME280;36359;41.556;-8.418;2024-02-16T03:19:15;61848.41;;;12.77;100.00
50430;BME280;36359;41.556;-8.418;2024-02-16T03:21:40;61847.84;;;12.79;100.00
50430;BME280;36359;41.556;-8.418;2024-02-16T03:24:06;61842.50;;;12.74;100.00
50430;BME280;36359;41.556;-8.418;2024-02-16T03:26:32;61833.97;;;12.66;100.00
50430;BME280;36359;41.556;-8.418;2024-02-16T03:28:58;61838.78;;;12.68;100.00
50430;BME280;36359;41.556;-8.418;2024-02-16T03:31:24;61825.94;;;12.58;100.00
50430;BME280;36359;41.556;-8.418;2024-02-16T03:33:50;61803.53;;;12.37;100.00
50430;BME280;36359;41.556;-8.418;2024-02-16T03:36:19;61791.25;;;12.25;100.00
50430;BME280;36359;41.556;-8.418;2024-02-16T03:38:46;61789.09;;;12.23;100.00
50430;BME280;36359;41.556;-8.418;2024-02-16T03:41:20;61811.47;;;12.49;100.00
50430;BME280;36359;41.556;-8.418;2024-02-16T03:43:46;61804.59;;;12.35;100.00
50430;BME280;36359;41.556;-8.418;2024-02-16T03:46:12;61801.41;;;12.32;100.00
50430;BME280;36359;41.556;-8.418;2024-02-16T03:48:38;61796.06;;;12.30;100.00
50430;BME280;36359;41.556;-8.418;2024-02-16T03:51:05;61777.34;;;12.12;100.00
50430;BME280;36359;41.556;-8.418;2024-02-16T03:53:32;61770.97;;;12.05;100.00
50430;BME280;36359;41.556;-8.418;2024-02-16T03:55:58;61780.59;;;12.15;100.00
50430;BME280;36359;41.556;-8.418;2024-02-16T03:58:24;61796.63;;;12.25;100.00
50430;BME280;36359;41.556;-8.418;2024-02-16T04:00:50;61786.41;;;12.23;100.00
50430;BME280;36359;41.556;-8.418;2024-02-16T04:03:16;61792.31;;;12.26;100.00
50430;BME280;36359;41.556;-8.418;2024-02-16T04:05:42;61792.88;;;12.24;100.00
50430;BME280;36359;41.556;-8.418;2024-02-16T04:08:08;61776.28;;;12.11;100.00
50430;BME280;36359;41.556;-8.418;2024-02-16T04:10:34;61778.44;;;12.13;100.00
50430;BME280;36359;41.556;-8.418;2024-02-16T04:13:00;61791.78;;;12.25;100.00
50430;BME280;36359;41.556;-8.418;2024-02-16T04:15:26;61802.47;;;12.36;100.00
50430;BME280;36359;41.556;-8.418;2024-02-16T04:17:52;61812.59;;;12.45;100.00
50430;BME280;36359;41.556;-8.418;2024-02-16T04:20:19;61813.66;;;12.46;100.00
50430;BME280;36359;41.556;-8.418;2024-02-16T04:22:45;61819.03;;;12.49;100.00
50430;BME280;36359;41.556;-8.418;2024-02-16T04:25:11;61824.41;;;12.52;100.00
50430;BME280;36359;41.556;-8.418;2024-02-16T04:27:37;61819.50;;;12.55;100.00
50430;BME280;36359;41.556;-8.418;2024-02-16T04:30:04;61815.25;;;12.50;100.00
50430;BME280;36359;41.556;-8.418;2024-02-16T04:32:30;61810.47;;;12.43;100.00
50430;BME280;36359;41.556;-8.418;2024-02-16T04:34:56;61797.13;;;12.31;100.00
50430;BME280;36359;41.556;-8.418;2024-02-16T04:37:23;61793.91;;;12.27;100.00
50430;BME280;36359;41.556;-8.418;2024-02-16T04:39:49;61789.09;;;12.25;100.00
50430;BME280;36359;41.556;-8.418;2024-02-16T04:42:16;61786.97;;;12.21;100.00
50430;BME280;36359;41.556;-8.418;2024-02-16T04:44:41;61780.59;;;12.15;100.00
50430;BME280;36359;41.556;-8.418;2024-02-16T04:47:08;61778.44;;;12.13;100.00
50430;BME280;36359;41.556;-8.418;2024-02-16T04:49:35;61766.69;;;12.01;100.00
50430;BME280;36359;41.556;-8.418;2024-02-16T04:52:01;61774.72;;;12.07;100.00
50430;BME280;36359;41.556;-8.418;2024-02-16T04:54:26;61772.00;;;12.09;100.00
50430;BME280;36359;41.556;-8.418;2024-02-16T04:56:53;61784.84;;;12.19;100.00
50430;BME280;36359;41.556;-8.418;2024-02-16T04:59:18;61788.03;;;12.22;100.00
50430;BME280;36359;41.556;-8.418;2024-02-16T05:01:44;61800.28;;;12.36;100.00
50430;BME280;36359;41.556;-8.418;2024-02-16T05:04:13;61802.47;;;12.36;100.00
50430;BME280;36359;41.556;-8.418;2024-02-16T05:06:43;61816.34;;;12.46;100.00
50430;BME280;36359;41.556;-8.418;2024-02-16T05:09:08;61811.00;;;12.44;100.00
50430;BME280;36359;41.556;-8.418;2024-02-16T05:11:35;61809.41;;;12.42;100.00
50430;BME280;36359;41.556;-8.418;2024-02-16T05:14:00;61811.56;;;12.42;100.00
50430;BME280;36359;41.556;-8.418;2024-02-16T05:16:27;61806.72;;;12.40;100.00
50430;BME280;36359;41.556;-8.418;2024-02-16T05:18:53;61800.81;;;12.37;100.00
50430;BME280;36359;41.556;-8.418;2024-02-16T05:21:18;61798.72;;;12.32;100.00
50430;BME280;36359;41.556;-8.418;2024-02-16T05:23:44;61791.25;;;12.25;100.00
50430;BME280;36359;41.556;-8.418;2024-02-16T05:26:10;61774.72;;;12.09;100.00
50430;BME280;36359;41.556;-8.418;2024-02-16T05:28:35;61793.91;;;12.27;100.00
50430;BME280;36359;41.556;-8.418;2024-02-16T05:31:13;61792.84;;;12.26;100.00
50430;BME280;36359;41.556;-8.418;2024-02-16T05:33:40;61786.97;;;12.21;100.00
50430;BME280;36359;41.556;-8.418;2024-02-16T05:36:06;61770.94;;;12.08;100.00
50430;BME280;36359;41.556;-8.418;2024-02-16T05:38:32;61777.91;;;12.12;100.00
50430;BME280;36359;41.556;-8.418;2024-02-16T05:41:00;61796.09;;;12.24;100.00
50430;BME280;36359;41.556;-8.418;2024-02-16T05:43:26;61789.09;;;12.23;100.00
50430;BME280;36359;41.556;-8.418;2024-02-16T05:45:52;61795.00;;;12.26;100.00
50430;BME280;36359;41.556;-8.418;2024-02-16T05:48:17;61804.06;;;12.37;100.00
50430;BME280;36359;41.556;-8.418;2024-02-16T05:50:44;61810.47;;;12.43;100.00
50430;BME280;36359;41.556;-8.418;2024-02-16T05:53:11;61828.09;;;12.60;100.00
50430;BME280;36359;41.556;-8.418;2024-02-16T05:55:36;61815.28;;;12.48;100.00
50430;BME280;36359;41.556;-8.418;2024-02-16T05:58:02;61794.94;;;12.31;100.00
50430;BME280;36359;41.556;-8.418;2024-02-16T06:00:32;61774.72;;;12.09;100.00
50430;BME280;36359;41.556;-8.418;2024-02-16T06:02:58;61780.59;;;12.15;100.00
50430;BME280;36359;41.556;-8.418;2024-02-16T06:05:24;61775.78;;;12.08;100.00
50430;BME280;36359;41.556;-8.418;2024-02-16T06:07:50;61783.22;;;12.17;100.00
50430;BME280;36359;41.556;-8.418;2024-02-16T06:10:16;61786.97;;;12.21;100.00
50430;BME280;36359;41.556;-8.418;2024-02-16T06:12:41;61773.09;;;12.08;100.00
50430;BME280;36359;41.556;-8.418;2024-02-16T06:15:07;61765.63;;;12.00;100.00
50430;BME280;36359;41.556;-8.418;2024-02-16T06:17:33;61775.78;;;12.10;100.00
50430;BME280;36359;41.556;-8.418;2024-02-16T06:19:59;61783.22;;;12.20;100.00
50430;BME280;36359;41.556;-8.418;2024-02-16T06:22:26;61778.41;;;12.15;100.00
50430;BME280;36359;41.556;-8.418;2024-02-16T06:24:51;61780.00;;;12.17;100.00
50430;BME280;36359;41.556;-8.418;2024-02-16T06:27:17;61780.03;;;12.14;100.00
50430;BME280;36359;41.556;-8.418;2024-02-16T06:29:42;61791.75;;;12.28;100.00
50430;BME280;36359;41.556;-8.418;2024-02-16T06:32:08;61796.06;;;12.30;100.00
50430;BME280;36359;41.556;-8.418;2024-02-16T06:34:36;61790.72;;;12.24;100.00
50430;BME280;36359;41.556;-8.418;2024-02-16T06:37:02;61789.09;;;12.23;100.00
50430;BME280;36359;41.556;-8.418;2024-02-16T06:39:27;61800.84;;;12.34;100.00
50430;BME280;36359;41.556;-8.418;2024-02-16T06:41:55;61793.38;;;12.27;100.00
50430;BME280;36359;41.556;-8.418;2024-02-16T06:44:21;61790.16;;;12.26;100.00
50430;BME280;36359;41.556;-8.418;2024-02-16T06:46:46;61787.00;;;12.18;100.00
50430;BME280;36359;41.556;-8.418;2024-02-16T06:49:12;61744.81;;;11.78;100.00
50430;BME280;36359;41.556;-8.418;2024-02-16T06:51:38;61764.56;;;11.97;100.00
50430;BME280;36359;41.556;-8.418;2024-02-16T06:54:04;61773.09;;;12.08;100.00
50430;BME280;36359;41.556;-8.418;2024-02-16T06:56:30;61770.44;;;12.05;100.00
50430;BME280;36359;41.556;-8.418;2024-02-16T06:58:56;61749.63;;;11.85;100.00
50430;BME280;36359;41.556;-8.418;2024-02-16T07:01:22;61734.16;;;11.68;100.00
50430;BME280;36359;41.556;-8.418;2024-02-16T07:03:47;61730.38;;;11.67;100.00
50430;BME280;36359;41.556;-8.418;2024-02-16T07:06:13;61733.59;;;11.70;100.00
50430;BME280;36359;41.556;-8.418;2024-02-16T07:08:40;61743.22;;;11.76;100.00
50430;BME280;36359;41.556;-8.418;2024-02-16T07:11:06;61759.22;;;11.94;100.00
50430;BME280;36359;41.556;-8.418;2024-02-16T07:13:33;61762.97;;;11.98;100.00
50430;BME280;36359;41.556;-8.418;2024-02-16T07:15:59;61758.13;;;11.96;100.00
50430;BME280;36359;41.556;-8.418;2024-02-16T07:20:57;61758.16;;;11.93;100.00
50430;BME280;36359;41.556;-8.418;2024-02-16T07:23:24;61740.53;;;11.76;100.00
50430;BME280;36359;41.556;-8.418;2024-02-16T07:25:50;61740.53;;;11.76;100.00
50430;BME280;36359;41.556;-8.418;2024-02-16T07:28:16;61767.22;;;12.02;100.00
50430;BME280;36359;41.556;-8.418;2024-02-16T07:30:41;61775.78;;;12.10;100.00
50430;BME280;36359;41.556;-8.418;2024-02-16T07:33:07;61787.50;;;12.21;100.00
50430;BME280;36359;41.556;-8.418;2024-02-16T07:35:34;61788.03;;;12.22;100.00
50430;BME280;36359;41.556;-8.418;2024-02-16T07:38:04;61787.50;;;12.24;100.00
50430;BME280;36359;41.556;-8.418;2024-02-16T07:40:29;61784.28;;;12.21;100.00
50430;BME280;36359;41.556;-8.418;2024-02-16T07:42:56;61774.72;;;12.09;100.00
50430;BME280;36359;41.556;-8.418;2024-02-16T07:45:22;61783.78;;;12.18;100.00
50430;BME280;36359;41.556;-8.418;2024-02-16T07:47:48;61787.50;;;12.24;100.00
50430;BME280;36359;41.556;-8.418;2024-02-16T07:50:18;61780.03;;;12.14;100.00
50430;BME280;36359;41.556;-8.418;2024-02-16T07:52:44;61751.75;;;11.87;100.00
50430;BME280;36359;41.556;-8.418;2024-02-16T07:55:10;61768.84;;;12.03;100.00
50430;BME280;36359;41.556;-8.418;2024-02-16T07:57:36;61753.38;;;11.86;100.00
50430;BME280;36359;41.556;-8.418;2024-02-16T08:00:04;61753.88;;;11.89;100.00
50430;BME280;36359;41.556;-8.418;2024-02-16T08:02:30;61757.09;;;11.92;100.00
50430;BME280;36359;41.556;-8.418;2024-02-16T08:04:56;61770.97;;;12.05;100.00
50430;BME280;36359;41.556;-8.418;2024-02-16T08:07:21;61777.84;;;12.17;100.00
50430;BME280;36359;41.556;-8.418;2024-02-16T08:09:48;61795.50;;;12.29;100.00
50430;BME280;36359;41.556;-8.418;2024-02-16T08:12:15;61805.16;;;12.36;100.00
50430;BME280;36359;41.556;-8.418;2024-02-16T08:14:42;61812.09;;;12.42;100.00
50430;BME280;36359;41.556;-8.418;2024-02-16T08:17:09;61813.16;;;12.43;100.00
50430;BME280;36359;41.556;-8.418;2024-02-16T08:19:36;61812.59;;;12.45;100.00
50430;BME280;36359;41.556;-8.418;2024-02-16T08:22:03;61817.94;;;12.50;100.00
50430;BME280;36359;41.556;-8.418;2024-02-16T08:24:36;61824.31;;;12.59;100.00
50430;BME280;36359;41.556;-8.418;2024-02-16T08:27:07;61831.81;;;12.64;100.00
50430;BME280;36359;41.556;-8.418;2024-02-16T08:30:00;61818.47;;;12.51;100.00
50430;BME280;36359;41.556;-8.418;2024-02-16T08:32:35;61825.41;;;12.58;100.00
50430;BME280;36359;41.556;-8.418;2024-02-16T08:35:08;61822.75;;;12.53;100.00
50430;BME280;36359;41.556;-8.418;2024-02-16T08:38:02;61815.25;;;12.50;100.00
50430;BME280;36359;41.556;-8.418;2024-02-16T08:40:40;61819.53;;;12.52;100.00
50430;BME280;36359;41.556;-8.418;2024-02-16T08:43:10;61822.75;;;12.53;100.00
50430;BME280;36359;41.556;-8.418;2024-02-16T08:45:41;61811.50;;;12.47;100.00
50430;BME280;36359;41.556;-8.418;2024-02-16T08:48:10;61806.16;;;12.42;100.00
50430;BME280;36359;41.556;-8.418;2024-02-16T08:51:07;61816.34;;;12.46;100.00
50430;BME280;36359;41.556;-8.418;2024-02-16T08:53:33;61821.16;;;12.54;100.00
50430;BME280;36359;41.556;-8.418;2024-02-16T08:55:59;61824.34;;;12.57;100.00
50430;BME280;36359;41.556;-8.418;2024-02-16T08:58:24;61827.56;;;12.60;100.00
50430;BME280;36359;41.556;-8.418;2024-02-16T09:00:50;61833.44;;;12.65;100.00
50430;BME280;36359;41.556;-8.418;2024-02-16T09:03:16;61842.50;;;12.74;100.00
50430;BME280;36359;41.556;-8.418;2024-02-16T09:05:42;61848.88;;;12.83;100.00
50430;BME280;36359;41.556;-8.418;2024-02-16T09:08:09;61858.53;;;12.89;100.00
50430;BME280;36359;41.556;-8.418;2024-02-16T09:10:36;61864.41;;;12.95;100.00
50430;BME280;36359;41.556;-8.418;2024-02-16T09:13:05;61867.63;;;12.95;100.00
50430;BME280;36359;41.556;-8.418;2024-02-16T09:15:30;61863.88;;;12.94;100.00
50430;BME280;36359;41.556;-8.418;2024-02-16T09:17:56;61898.06;;;13.27;100.00
50430;BME280;36359;41.556;-8.418;2024-02-16T09:20:22;61919.41;;;13.50;100.00
50430;BME280;36359;41.556;-8.418;2024-02-16T09:22:48;61920.50;;;13.49;100.00
50430;BME280;36359;41.556;-8.418;2024-02-16T09:25:14;61910.91;;;13.39;100.00
50430;BME280;36359;41.556;-8.418;2024-02-16T09:27:40;61913.03;;;13.42;100.00
50430;BME280;36359;41.556;-8.418;2024-02-16T09:30:11;61921.03;;;13.49;100.00
50430;BME280;36359;41.556;-8.418;2024-02-16T09:32:40;61916.16;;;13.50;100.00
50430;BME280;36359;41.556;-8.418;2024-02-16T09:35:08;61923.19;;;13.51;100.00
50430;BME280;36359;41.556;-8.418;2024-02-16T09:37:35;61923.72;;;13.52;100.00
50430;BME280;36359;41.556;-8.418;2024-02-16T09:40:01;61916.16;;;13.50;100.00
50430;BME280;36359;41.556;-8.418;2024-02-16T09:42:29;61917.84;;;13.46;100.00
50430;BME280;36359;41.556;-8.418;2024-02-16T09:44:55;61905.53;;;13.34;100.00
50430;BME280;36359;41.556;-8.418;2024-02-16T09:47:22;61917.84;;;13.46;100.00
50430;BME280;36359;41.556;-8.418;2024-02-16T09:49:49;61933.34;;;13.61;100.00
50430;BME280;36359;41.556;-8.418;2024-02-16T09:52:14;61934.94;;;13.62;100.00
50430;BME280;36359;41.556;-8.418;2024-02-16T09:54:40;61941.34;;;13.69;100.00
50430;BME280;36359;41.556;-8.418;2024-02-16T09:57:06;61956.25;;;13.88;100.00
50430;BME280;36359;41.556;-8.418;2024-02-16T09:59:32;61965.38;;;13.94;100.00
50430;BME280;36359;41.556;-8.418;2024-02-16T10:02:01;61964.34;;;13.91;100.00
50430;BME280;36359;41.556;-8.418;2024-02-16T10:04:27;61966.97;;;13.96;100.00
50430;BME280;36359;41.556;-8.418;2024-02-16T10:06:53;61952.03;;;13.79;100.00
50430;BME280;36359;41.556;-8.418;2024-02-16T10:09:25;61964.88;;;13.91;100.00
50430;BME280;36359;41.556;-8.418;2024-02-16T10:11:52;61974.47;;;14.03;100.00
50430;BME280;36359;41.556;-8.418;2024-02-16T10:14:18;62012.97;;;14.40;100.00
50430;BME280;36359;41.556;-8.418;2024-02-16T10:16:47;62017.25;;;14.44;100.00
50430;BME280;36359;41.556;-8.418;2024-02-16T10:19:13;62017.25;;;14.44;100.00
50430;BME280;36359;41.556;-8.418;2024-02-16T10:21:40;62010.81;;;14.38;100.00
50430;BME280;36359;41.556;-8.418;2024-02-16T10:24:07;62004.41;;;14.31;100.00
50430;BME280;36359;41.556;-8.418;2024-02-16T10:26:34;62007.63;;;14.32;100.00
50430;BME280;36359;41.556;-8.418;2024-02-16T10:29:06;62007.63;;;14.35;100.00
50430;BME280;36359;41.556;-8.418;2024-02-16T10:31:32;61994.28;;;14.19;100.00
50430;BME280;36359;41.556;-8.418;2024-02-16T10:34:03;62004.44;;;14.29;100.00
50430;BME280;36359;41.556;-8.418;2024-02-16T10:36:35;61994.78;;;14.22;100.00
50430;BME280;36359;41.556;-8.418;2024-02-16T10:39:02;62003.91;;;14.28;100.00
50430;BME280;36359;41.556;-8.418;2024-02-16T10:41:38;62008.66;;;14.38;100.00
50430;BME280;36359;41.556;-8.418;2024-02-16T10:44:04;62010.84;;;14.35;100.00
50430;BME280;36359;41.556;-8.418;2024-02-16T10:46:31;62031.72;;;14.55;100.00
50430;BME280;36359;41.556;-8.418;2024-02-16T10:48:58;62027.44;;;14.53;100.00
50430;BME280;36359;41.556;-8.418;2024-02-16T10:53:57;62018.88;;;14.43;100.00
50430;BME280;36359;41.556;-8.418;2024-02-16T10:56:33;62006.56;;;14.31;100.00
50430;BME280;36359;41.556;-8.418;2024-02-16T10:59:03;62034.94;;;14.58;100.00
50430;BME280;36359;41.556;-8.418;2024-02-16T11:01:43;62027.97;;;14.54;100.00
50430;BME280;36359;41.556;-8.418;2024-02-16T11:04:14;62035.97;;;14.62;100.00
50430;BME280;36359;41.556;-8.418;2024-02-16T11:06:48;62068.13;;;14.90;100.00
50430;BME280;36359;41.556;-8.418;2024-02-16T11:09:28;62099.16;;;15.19;100.00
50430;BME280;36359;41.556;-8.418;2024-02-16T11:11:58;62120.56;;;15.40;100.00
50430;BME280;36359;41.556;-8.418;2024-02-16T11:14:36;62120.06;;;15.37;100.00
50430;BME280;36359;41.556;-8.418;2024-02-16T11:17:11;62121.63;;;15.41;100.00
50430;BME280;36359;41.556;-8.418;2024-02-16T11:19:44;62139.28;;;15.60;100.00
50430;BME280;36359;41.556;-8.418;2024-02-16T11:22:10;62173.00;;;15.95;100.00
50430;BME280;36359;41.556;-8.418;2024-02-16T11:24:42;62167.13;;;15.87;100.00
50430;BME280;36359;41.556;-8.418;2024-02-16T11:27:10;62156.44;;;15.77;100.00
50430;BME280;36359;41.556;-8.418;2024-02-16T11:29:40;62153.75;;;15.74;100.00
50430;BME280;36359;41.556;-8.418;2024-02-16T11:32:07;62151.63;;;15.70;100.00
50430;BME280;36359;41.556;-8.418;2024-02-16T11:34:34;62150.53;;;15.71;100.00
50430;BME280;36359;41.556;-8.418;2024-02-16T11:37:01;62150.56;;;15.69;100.00
50430;BME280;36359;41.556;-8.418;2024-02-16T11:39:28;62159.66;;;15.77;100.00
50430;BME280;36359;41.556;-8.418;2024-02-16T11:42:05;62163.91;;;15.84;100.00
50430;BME280;36359;41.556;-8.418;2024-02-16T11:44:35;62146.78;;;15.67;100.00
50430;BME280;36359;41.556;-8.418;2024-02-16T11:47:02;62139.31;;;15.55;100.00
50430;BME280;36359;41.556;-8.418;2024-02-16T11:49:29;62156.44;;;15.77;100.00
50430;BME280;36359;41.556;-8.418;2024-02-16T11:51:56;62157.47;;;15.80;100.00
50430;BME280;36359;41.556;-8.418;2024-02-16T11:54:22;62169.84;;;15.87;100.00
50430;BME280;36359;41.556;-8.418;2024-02-16T11:56:48;62163.34;;;15.86;100.00
50430;BME280;36359;41.556;-8.418;2024-02-16T11:59:19;62146.84;;;15.62;100.00
50430;BME280;36359;41.556;-8.418;2024-02-16T12:01:52;62140.38;;;15.59;100.00
50430;BME280;36359;41.556;-8.418;2024-02-16T12:06:58;62122.72;;;15.42;100.00
50430;BME280;36359;41.556;-8.418;2024-02-16T12:09:25;62139.81;;;15.58;100.00
50430;BME280;36359;41.556;-8.418;2024-02-16T12:11:52;62135.50;;;15.59;100.00
50430;BME280;36359;41.556;-8.418;2024-02-16T12:14:21;62145.16;;;15.66;100.00
50430;BME280;36359;41.556;-8.418;2024-02-16T12:16:48;62135.00;;;15.56;100.00
50430;BME280;36359;41.556;-8.418;2024-02-16T12:19:16;62159.66;;;15.80;100.00
50430;BME280;36359;41.556;-8.418;2024-02-16T12:21:42;62192.31;;;16.11;100.00
50430;BME280;36359;41.556;-8.418;2024-02-16T12:24:08;62175.69;;;15.95;100.00
50430;BME280;36359;41.556;-8.418;2024-02-16T12:26:33;62191.25;;;16.07;100.00
50430;BME280;36359;41.556;-8.418;2024-02-16T12:28:59;62201.94;;;16.20;100.00
50430;BME280;36359;41.556;-8.418;2024-02-16T12:31:25;62185.88;;;16.05;100.00
50430;BME280;36359;41.556;-8.418;2024-02-16T12:33:53;62165.47;;;15.88;100.00
50430;BME280;36359;41.556;-8.418;2024-02-16T12:36:19;62180.56;;;15.97;100.00
50430;BME280;36359;41.556;-8.418;2024-02-16T12:38:45;62194.97;;;16.13;100.00
50430;BME280;36359;41.556;-8.418;2024-02-16T12:41:11;62181.63;;;15.98;100.00
50430;BME280;36359;41.556;-8.418;2024-02-16T12:43:37;62178.34;;;16.00;100.00
50430;BME280;36359;41.556;-8.418;2024-02-16T12:46:03;62185.88;;;16.05;100.00
50430;BME280;36359;41.556;-8.418;2024-02-16T12:48:30;62196.63;;;16.12;100.00